Time;durP1;ratioP1;P1;durP2;ratioP2;P2;SDS_P1;SDS_P2;PMS_P1;PMS_P2;Temp;Humidity;BMP_temperature;BMP_pressure;BME280_temperature;BME280_humidity;BME280_pressure;Samples;Min_cycle;Max_cycle;Signal;HPM_P1;HPM_P2
2022/09/05 00:01:53;;;;;;;5.53;4.20;;;;;;;20.02;59.00;101903.38;5106913;28;20848;-57
2022/09/05 00:04:26;;;;;;;5.82;4.72;;;;;;;19.90;59.13;101896.09;5107210;28;20412;-57
2022/09/05 00:07:17;;;;;;;6.10;4.72;;;;;;;19.75;59.50;101904.31;5107093;28;20916;-57
2022/09/05 00:10:21;;;;;;;6.07;4.78;;;;;;;19.61;59.71;101898.88;5085868;28;20410;-57
2022/09/05 00:12:48;;;;;;;6.18;4.75;;;;;;;19.50;59.88;101896.78;5086596;28;20473;-58
2022/09/05 00:15:26;;;;;;;6.03;4.63;;;;;;;19.37;60.06;101897.50;5086918;28;20374;-58
2022/09/05 00:18:10;;;;;;;8.32;5.00;;;;;;;19.38;60.27;101899.19;5086803;28;20382;-58
2022/09/05 00:20:54;;;;;;;7.57;4.93;;;;;;;19.40;60.10;101899.81;5086761;28;20891;-57
2022/09/05 00:25:51;;;;;;;7.20;4.70;;;;;;;19.29;60.47;101900.38;5106275;27;20404;-58
2022/09/05 00:28:17;;;;;;;6.45;4.60;;;;;;;19.23;60.61;101890.41;5106884;28;20388;-58
2022/09/05 00:31:27;;;;;;;6.20;4.82;;;;;;;19.21;60.90;101896.00;5107155;28;20405;-57
2022/09/05 00:35:08;;;;;;;7.38;4.93;;;;;;;19.22;60.60;101894.16;5065714;28;20458;-58
2022/09/05 00:37:45;;;;;;;6.72;5.10;;;;;;;19.09;60.87;101897.59;5066774;28;20396;-58
2022/09/05 00:40:19;;;;;;;5.70;5.10;;;;;;;19.03;61.11;101890.31;5066339;28;20806;-58
2022/09/05 00:42:51;;;;;;;6.70;4.80;;;;;;;18.98;61.33;101898.97;5066566;28;20466;-58
2022/09/05 00:49:58;;;;;;;6.28;5.10;;;;;;;18.93;61.55;101897.91;5106258;27;20404;-58
2022/09/05 00:52:30;;;;;;;7.97;5.47;;;;;;;18.82;61.73;101900.09;5107343;28;20393;-58
2022/09/05 00:55:11;;;;;;;5.95;5.25;;;;;;;18.81;61.83;101897.56;5107217;28;20368;-58
2022/09/05 00:57:55;;;;;;;7.55;5.50;;;;;;;18.77;61.97;101891.75;5106895;28;20404;-58
2022/09/05 01:00:23;;;;;;;6.53;5.00;;;;;;;18.77;62.14;101889.06;5107128;28;20427;-58
2022/09/05 01:03:08;;;;;;;7.57;5.50;;;;;;;18.83;62.05;101898.22;5106905;28;20874;-59
2022/09/05 01:06:01;;;;;;;5.80;5.20;;;;;;;18.84;61.85;101899.91;5107351;28;20855;-57
2022/09/05 01:09:00;;;;;;;6.53;5.13;;;;;;;18.90;61.54;101908.00;5106790;28;20415;-58
2022/09/05 01:12:04;;;;;;;8.10;5.50;;;;;;;18.99;61.54;101908.69;5106511;28;20376;-58
2022/09/05 01:14:47;;;;;;;8.63;5.50;;;;;;;19.01;61.51;101911.16;5063693;28;20399;-59
2022/09/05 01:17:40;;;;;;;6.43;5.38;;;;;;;18.97;61.62;101913.41;5063695;28;20444;-58
2022/09/05 01:20:43;;;;;;;6.70;5.25;;;;;;;19.00;61.35;101907.66;5096853;28;20443;-58
2022/09/05 01:23:23;;;;;;;7.78;5.55;;;;;;;18.98;61.22;101911.56;5106649;28;21493;-57
2022/09/05 01:26:10;;;;;;;7.10;5.45;;;;;;;18.98;61.42;101907.03;5106807;28;20751;-58
2022/09/05 01:28:54;;;;;;;7.57;5.95;;;;;;;18.96;61.35;101913.63;5106197;28;20412;-59
2022/09/05 01:31:29;;;;;;;8.00;5.53;;;;;;;18.94;61.58;101910.28;5106457;28;20376;-58
2022/09/05 01:34:00;;;;;;;8.77;5.88;;;;;;;19.02;61.27;101915.53;5106123;28;20392;-58
2022/09/05 01:36:48;;;;;;;6.93;5.40;;;;;;;19.09;61.31;101911.03;5106412;28;20372;-58
2022/09/05 01:39:59;;;;;;;6.85;5.80;;;;;;;19.17;60.96;101900.09;5106294;28;20456;-58
2022/09/05 01:42:46;;;;;;;8.13;5.80;;;;;;;19.13;60.93;101906.91;5073173;28;20442;-58
2022/09/05 01:45:40;;;;;;;10.85;6.68;;;;;;;19.08;61.06;101907.50;5105909;28;20408;-58
2022/09/05 01:48:45;;;;;;;7.40;6.15;;;;;;;19.13;60.97;101912.28;5105641;28;20427;-59
2022/09/05 01:51:35;;;;;;;7.72;5.68;;;;;;;19.14;60.83;101915.78;5106046;28;20461;-59
2022/09/05 01:54:30;;;;;;;7.40;6.15;;;;;;;19.13;60.86;101922.22;5106071;28;20380;-58
2022/09/05 01:57:28;;;;;;;7.90;5.90;;;;;;;19.14;60.82;101916.66;5101049;28;20391;-58
2022/09/05 02:00:17;;;;;;;9.50;6.30;;;;;;;19.08;60.65;101926.31;5099178;28;20750;-57
2022/09/05 02:03:03;;;;;;;9.57;6.40;;;;;;;18.99;60.66;101919.44;5092291;28;20477;-58
2022/09/05 02:05:43;;;;;;;9.10;6.43;;;;;;;18.91;60.87;101933.84;5092497;28;20373;-58
2022/09/05 02:08:34;;;;;;;8.73;6.50;;;;;;;18.89;60.77;101935.09;5092105;28;20469;-58
2022/09/05 02:11:05;;;;;;;10.43;6.18;;;;;;;18.82;60.93;101945.78;5092102;28;20380;-58
2022/09/05 02:13:33;;;;;;;7.55;6.05;;;;;;;18.83;60.69;101951.97;5092194;28;20385;-58
2022/09/05 02:16:16;;;;;;;7.43;6.10;;;;;;;18.76;60.85;101943.81;5092401;28;20460;-58
2022/09/05 02:21:37;;;;;;;9.77;6.75;;;;;;;18.91;60.32;101935.72;5106333;27;20400;-58
2022/09/05 02:24:37;;;;;;;10.25;6.60;;;;;;;18.87;60.58;101942.47;5107257;28;20473;-57
2022/09/05 02:27:27;;;;;;;9.23;6.57;;;;;;;18.87;60.75;101939.78;5106207;27;20404;-59
2022/09/05 02:30:10;;;;;;;8.07;6.60;;;;;;;18.80;60.69;101930.81;5107142;28;20381;-58
2022/09/05 02:32:35;;;;;;;10.38;6.47;;;;;;;18.79;60.68;101935.38;5107111;28;20449;-58
2022/09/05 02:35:09;;;;;;;9.27;7.03;;;;;;;18.76;60.72;101924.19;5107149;28;20765;-58
2022/09/05 02:37:43;;;;;;;8.48;6.47;;;;;;;18.84;60.59;101929.47;5106750;28;20380;-58
2022/09/05 02:40:27;;;;;;;8.47;6.10;;;;;;;18.86;60.64;101922.03;5107110;28;20441;-59
2022/09/05 02:43:20;;;;;;;9.15;6.72;;;;;;;18.84;60.55;101927.59;5106700;28;20941;-58
2022/09/05 02:45:46;;;;;;;8.63;6.40;;;;;;;18.83;60.71;101931.28;5106895;28;20568;-58
2022/09/05 02:48:29;;;;;;;9.10;6.60;;;;;;;18.82;60.61;101936.88;5106857;28;20492;-58
2022/09/05 02:51:13;;;;;;;9.45;6.70;;;;;;;18.88;60.61;101944.97;5106813;28;20380;-58
2022/09/05 02:53:45;;;;;;;7.90;6.40;;;;;;;18.85;60.58;101941.84;5106731;28;20372;-58
2022/09/05 02:56:28;;;;;;;7.15;6.30;;;;;;;18.80;60.50;101931.69;5106786;28;20932;-58
2022/09/05 02:59:24;;;;;;;8.98;6.20;;;;;;;18.84;60.64;101938.34;5106653;28;20822;-57
2022/09/05 03:02:09;;;;;;;7.93;6.38;;;;;;;18.90;60.29;101942.91;5106309;28;20890;-58
2022/09/05 03:04:49;;;;;;;8.73;5.93;;;;;;;19.05;60.22;101940.16;5106554;28;20471;-58
2022/09/05 03:10:02;;;;;;;10.43;6.70;;;;;;;19.22;60.04;101945.22;5085883;27;20804;-57
2022/09/05 03:12:38;;;;;;;8.43;6.53;;;;;;;19.23;59.90;101942.34;5080696;28;20409;-58
2022/09/05 03:15:38;;;;;;;9.07;6.25;;;;;;;19.22;59.85;101934.47;5086595;28;20456;-57
2022/09/05 03:21:40;;;;;;;10.77;7.10;;;;;;;19.26;59.44;101938.41;5106149;27;20404;-58
2022/09/05 03:24:33;;;;;;;12.35;6.43;;;;;;;19.27;59.38;101953.53;5106840;28;20392;-57
2022/09/05 03:27:19;;;;;;;10.00;6.97;;;;;;;19.26;59.26;101949.16;5107129;28;20452;-57
2022/09/05 03:30:10;;;;;;;10.82;6.75;;;;;;;19.27;59.34;101945.47;5106914;28;20385;-58
2022/09/05 03:33:16;;;;;;;8.80;6.60;;;;;;;19.23;59.43;101934.28;5106870;28;20433;-58
2022/09/05 03:35:41;;;;;;;9.25;6.43;;;;;;;19.22;59.44;101942.53;5106669;28;20379;-58
2022/09/05 03:39:35;;;;;;;9.10;6.60;;;;;;;19.21;59.41;101944.41;5105663;27;20785;-58
2022/09/05 03:42:15;;;;;;;9.05;6.85;;;;;;;19.23;59.39;101947.72;5107161;28;20770;-58
2022/09/05 03:44:40;;;;;;;10.67;7.10;;;;;;;19.24;59.30;101952.06;5106805;28;20372;-58
2022/09/05 03:47:45;;;;;;;7.90;6.53;;;;;;;19.21;59.39;101947.09;5107160;28;20408;-57
2022/09/05 03:50:36;;;;;;;10.63;6.70;;;;;;;19.23;59.38;101961.16;5085468;28;20868;-57
2022/09/05 03:53:41;;;;;;;8.73;6.93;;;;;;;19.26;59.28;101971.50;5086553;28;20439;-57
2022/09/05 03:56:44;;;;;;;11.20;6.88;;;;;;;19.25;59.41;101967.16;5086537;28;20451;-58
2022/09/05 03:59:24;;;;;;;12.68;7.05;;;;;;;19.24;59.49;101973.56;5086186;28;20380;-57
2022/09/05 04:01:56;;;;;;;11.23;6.45;;;;;;;19.25;59.44;101972.53;5085275;28;20764;-58
2022/09/05 04:04:33;;;;;;;11.35;6.82;;;;;;;19.28;59.65;101982.91;5086387;28;20390;-57
2022/09/05 04:07:04;;;;;;;9.53;6.60;;;;;;;19.27;59.53;101977.72;5086101;28;20381;-57
2022/09/05 04:10:04;;;;;;;10.52;7.93;;;;;;;19.25;59.55;101980.59;5085686;28;20370;-58
2022/09/05 04:12:37;;;;;;;10.05;7.15;;;;;;;19.32;59.43;101987.88;5081991;28;20399;-58
2022/09/05 04:15:10;;;;;;;13.55;7.80;;;;;;;19.29;59.52;101984.56;5084833;28;20378;-57
2022/09/05 04:17:44;;;;;;;10.23;7.60;;;;;;;19.32;59.43;101986.03;5085189;28;20419;-59
2022/09/05 04:20:19;;;;;;;11.88;7.55;;;;;;;19.29;59.60;101989.94;5085781;28;20370;-57
2022/09/05 04:22:47;;;;;;;13.57;7.78;;;;;;;19.31;59.51;101997.81;5085112;28;20378;-58
2022/09/05 04:25:40;;;;;;;12.32;7.18;;;;;;;19.33;59.56;102000.31;5084796;28;20469;-57
2022/09/05 04:28:41;;;;;;;9.98;7.15;;;;;;;19.36;59.46;102000.75;5085934;28;20459;-57
2022/09/05 04:31:15;;;;;;;13.57;7.30;;;;;;;19.41;59.41;102003.66;5043081;28;20392;-57
2022/09/05 04:34:25;;;;;;;10.32;7.50;;;;;;;19.45;59.27;102007.63;5079215;28;20488;-57
2022/09/05 04:37:04;;;;;;;9.15;6.93;;;;;;;19.49;59.21;102013.44;5083590;28;20936;-58
2022/09/05 04:39:32;;;;;;;17.67;7.72;;;;;;;19.54;59.29;102016.38;5083209;28;20439;-58
2022/09/05 04:42:23;;;;;;;11.43;7.40;;;;;;;19.55;59.01;102009.13;5083626;28;20422;-59
2022/09/05 04:44:51;;;;;;;9.20;6.82;;;;;;;19.62;58.80;102023.44;5083197;28;20474;-58
2022/09/05 04:47:17;;;;;;;9.65;6.80;;;;;;;19.67;58.87;102029.06;5083116;28;20375;-57
2022/09/05 04:49:50;;;;;;;11.77;6.93;;;;;;;19.66;59.00;102028.25;5074906;28;20390;-57
2022/09/05 04:52:46;;;;;;;10.35;6.75;;;;;;;19.66;58.80;102025.53;5071266;28;20387;-58
2022/09/05 04:55:18;;;;;;;10.35;6.97;;;;;;;19.71;58.73;102022.25;5069108;28;20818;-58
2022/09/05 04:57:56;;;;;;;11.85;7.18;;;;;;;19.76;58.69;102024.38;5069428;28;20955;-58
2022/09/05 05:00:35;;;;;;;8.95;6.50;;;;;;;19.78;58.40;102019.63;5070162;28;20417;-59
2022/09/05 05:03:09;;;;;;;11.60;7.07;;;;;;;19.75;58.52;102014.63;5070184;28;20383;-58
2022/09/05 05:05:47;;;;;;;9.23;6.60;;;;;;;19.80;58.43;102025.63;5069267;28;20382;-57
2022/09/05 05:08:40;;;;;;;10.82;7.13;;;;;;;19.79;58.54;102026.66;5069181;28;20383;-57
2022/09/05 05:11:15;;;;;;;12.90;7.20;;;;;;;19.81;58.33;102024.63;5071242;28;20460;-56
2022/09/05 05:13:46;;;;;;;9.60;6.72;;;;;;;19.83;58.26;102026.06;5071166;28;20742;-57
2022/09/05 05:16:22;;;;;;;11.90;7.18;;;;;;;19.94;58.14;102023.84;5071295;28;20389;-57
2022/09/05 05:19:14;;;;;;;11.90;7.90;;;;;;;19.98;58.13;102028.63;5070954;28;20465;-57
2022/09/05 05:21:54;;;;;;;12.82;8.25;;;;;;;20.03;58.00;102025.34;5049595;28;20768;-57
2022/09/05 05:24:26;;;;;;;11.55;8.20;;;;;;;20.08;58.13;102030.94;5071142;28;20390;-56
2022/09/05 05:27:15;;;;;;;15.98;7.78;;;;;;;20.11;57.91;102030.53;5071500;28;20402;-56
2022/09/05 05:29:43;;;;;;;16.93;7.80;;;;;;;20.16;57.77;102038.84;5065341;28;20391;-57
2022/09/05 05:32:18;;;;;;;11.55;7.18;;;;;;;20.20;57.40;102040.09;5070929;28;20383;-57
2022/09/05 05:34:48;;;;;;;11.15;7.50;;;;;;;20.19;57.50;102034.94;5070906;28;20402;-56
2022/09/05 05:37:36;;;;;;;12.40;7.70;;;;;;;20.24;57.26;102040.53;5070774;28;20415;-56
2022/09/05 05:40:07;;;;;;;9.88;7.03;;;;;;;20.26;57.43;102041.16;5071003;28;20454;-57
2022/09/05 05:42:34;;;;;;;10.80;7.00;;;;;;;20.29;57.35;102037.22;5070934;28;20453;-56
2022/09/05 05:45:00;;;;;;;10.85;7.45;;;;;;;20.35;57.23;102042.63;5070975;28;20462;-57
2022/09/05 05:47:58;;;;;;;10.40;7.10;;;;;;;20.34;57.26;102043.66;5085807;27;20410;-56
2022/09/05 05:50:42;;;;;;;9.95;7.00;;;;;;;20.37;57.08;102040.56;5069757;28;20838;-57
2022/09/05 05:53:33;;;;;;;11.80;7.40;;;;;;;20.42;56.94;102048.88;5057374;28;20394;-57
2022/09/05 05:56:29;;;;;;;11.13;6.88;;;;;;;20.44;56.81;102052.19;5078774;28;20899;-57
2022/09/05 05:59:17;;;;;;;10.13;7.50;;;;;;;20.47;56.62;102048.25;5086694;28;20393;-57
2022/09/05 06:02:05;;;;;;;12.88;7.88;;;;;;;20.50;56.96;102053.25;5086685;28;20414;-56
2022/09/05 06:04:42;;;;;;;11.65;7.13;;;;;;;20.54;56.70;102049.09;5086331;28;20390;-59
2022/09/05 06:07:29;;;;;;;12.55;6.60;;;;;;;20.58;56.78;102044.97;5086189;28;20968;-58
2022/09/05 06:10:32;;;;;;;12.80;7.13;;;;;;;20.63;56.55;102044.38;5086120;28;20378;-58
2022/09/05 06:13:34;;;;;;;10.17;7.30;;;;;;;20.74;56.33;102041.09;5086464;28;20810;-57
2022/09/05 06:16:18;;;;;;;9.98;6.50;;;;;;;20.79;56.10;102037.78;5086305;28;20389;-57
2022/09/05 06:19:06;;;;;;;10.48;7.35;;;;;;;20.91;55.84;102035.31;5086335;28;20476;-56
2022/09/05 06:21:38;;;;;;;11.35;7.18;;;;;;;21.04;55.54;102048.78;5085976;28;20431;-57
2022/09/05 06:24:31;;;;;;;10.20;7.15;;;;;;;21.11;55.50;102046.09;5085976;28;20377;-57
2022/09/05 06:26:56;;;;;;;10.25;7.60;;;;;;;21.14;55.42;102045.66;5086025;28;20403;-58
2022/09/05 06:31:20;;;;;;;10.70;7.95;;;;;;;21.25;54.97;102042.34;5106137;27;20396;-57
2022/09/05 06:34:12;;;;;;;12.93;8.13;;;;;;;21.36;54.77;102041.72;5107203;28;20404;-57
2022/09/05 06:36:47;;;;;;;10.55;7.10;;;;;;;21.49;54.55;102040.88;5107115;28;20802;-57
2022/09/05 06:39:34;;;;;;;10.82;8.20;;;;;;;21.68;54.43;102044.59;5106967;28;20403;-57
2022/09/05 06:42:11;;;;;;;11.70;7.57;;;;;;;21.77;53.84;102051.41;5106967;28;20387;-57
2022/09/05 06:44:55;;;;;;;11.10;8.02;;;;;;;21.80;53.89;102057.44;5106949;28;20874;-57
2022/09/05 06:47:22;;;;;;;18.23;8.18;;;;;;;21.92;53.96;102055.75;5106879;28;20376;-58
2022/09/05 06:50:00;;;;;;;15.43;8.45;;;;;;;22.18;53.16;102059.38;5106849;28;20898;-57
2022/09/05 06:52:28;;;;;;;12.82;7.80;;;;;;;25.73;45.63;102069.50;5106689;28;20399;-57
2022/09/05 06:55:06;;;;;;;11.95;8.35;;;;;;;29.19;38.22;102065.25;5106351;28;20478;-58
2022/09/05 06:57:56;;;;;;;11.13;7.18;;;;;;;29.86;36.70;102058.25;5106653;28;20831;-58
2022/09/05 07:00:50;;;;;;;8.30;6.65;;;;;;;30.74;35.31;102062.00;5106692;28;20437;-58
2022/09/05 07:03:29;;;;;;;9.45;6.80;;;;;;;33.21;31.33;102064.44;5105126;28;20384;-59
2022/09/05 07:06:00;;;;;;;8.65;6.68;;;;;;;35.21;28.22;102056.91;5104764;28;21218;-56
2022/09/05 07:10:40;;;;;;;7.32;5.70;;;;;;;30.64;33.75;102081.97;5103366;27;20449;-59
2022/09/05 07:13:19;;;;;;;6.90;6.20;;;;;;;29.05;36.64;102082.06;5106570;28;20393;-59
2022/09/05 07:16:02;;;;;;;9.75;6.15;;;;;;;33.80;29.63;102076.13;5106698;28;20384;-58
2022/09/05 07:18:43;;;;;;;9.48;6.10;;;;;;;35.49;27.23;102070.69;5107106;28;20381;-58
2022/09/05 07:21:21;;;;;;;8.05;5.70;;;;;;;34.44;28.25;102063.69;5107132;28;20383;-59
2022/09/05 07:23:47;;;;;;;10.65;5.40;;;;;;;32.66;30.45;102078.38;5107099;28;20380;-56
2022/09/05 07:26:15;;;;;;;7.13;5.00;;;;;;;31.37;32.66;102078.13;5106980;28;20738;-59
2022/09/05 07:28:42;;;;;;;6.70;5.53;;;;;;;30.77;33.48;102075.16;5106786;28;20936;-57
2022/09/05 07:31:16;;;;;;;6.78;5.60;;;;;;;30.98;33.30;102079.56;5105478;28;20381;-58
2022/09/05 07:34:30;;;;;;;9.43;6.47;;;;;;;30.48;33.24;102076.47;5065723;28;20457;-58
2022/09/05 07:37:00;;;;;;;9.48;6.50;;;;;;;30.03;33.79;102080.72;5062572;28;20496;-59
2022/09/05 07:39:39;;;;;;;6.95;6.03;;;;;;;29.30;35.01;102078.72;5046748;28;20369;-57
2022/09/05 07:42:09;;;;;;;9.63;6.80;;;;;;;28.93;35.86;102092.31;5046858;28;20377;-60
2022/09/05 07:44:50;;;;;;;7.72;6.60;;;;;;;28.72;36.61;102085.84;5046464;28;20386;-57
2022/09/05 07:47:25;;;;;;;9.77;7.80;;;;;;;28.23;37.16;102097.59;5046171;28;20891;-57
2022/09/05 07:49:52;;;;;;;8.23;7.20;;;;;;;27.83;37.60;102090.56;5045731;28;20495;-58
2022/09/05 07:52:20;;;;;;;9.40;7.83;;;;;;;27.63;38.24;102088.41;5046020;28;20566;-57
2022/09/05 07:54:51;;;;;;;7.32;6.63;;;;;;;27.57;38.40;102092.13;5045382;28;20386;-57
2022/09/05 07:57:21;;;;;;;8.00;6.70;;;;;;;27.30;39.35;102090.09;5044803;28;20420;-58
2022/09/05 07:59:52;;;;;;;9.52;7.30;;;;;;;27.15;39.85;102084.38;5045309;28;20428;-60
2022/09/05 08:02:18;;;;;;;9.68;7.38;;;;;;;26.87;40.27;102080.69;5045218;28;20389;-57
2022/09/05 08:04:43;;;;;;;7.97;6.70;;;;;;;26.78;40.53;102079.44;5045518;28;20396;-60
2022/09/05 08:07:19;;;;;;;9.57;7.15;;;;;;;26.80;40.88;102080.03;5045415;28;20745;-57
2022/09/05 08:09:47;;;;;;;7.33;5.93;;;;;;;26.82;40.51;102067.00;5045864;28;20381;-57
2022/09/05 08:12:25;;;;;;;9.68;6.45;;;;;;;26.92;40.47;102075.31;5044925;28;20428;-57
2022/09/05 08:15:11;;;;;;;8.70;6.65;;;;;;;26.93;40.55;102076.97;5026173;28;20395;-58
2022/09/05 08:17:58;;;;;;;13.25;6.90;;;;;;;27.05;40.59;102080.44;5040298;28;20760;-58
2022/09/05 08:20:29;;;;;;;12.05;7.20;;;;;;;27.21;40.76;102083.41;5045668;28;20389;-58
2022/09/05 08:23:08;;;;;;;7.13;6.20;;;;;;;27.29;40.72;102071.28;5045617;28;20918;-58
2022/09/05 08:26:07;;;;;;;7.38;6.43;;;;;;;27.23;40.76;102076.63;5045358;28;20408;-60
2022/09/05 08:28:44;;;;;;;8.05;6.35;;;;;;;27.01;40.65;102082.00;5045305;28;20390;-57
2022/09/05 08:31:27;;;;;;;9.20;6.25;;;;;;;26.89;40.68;102084.78;5036647;28;20899;-57
2022/09/05 08:33:59;;;;;;;8.02;5.55;;;;;;;26.83;41.47;102082.22;5062287;28;20428;-57
2022/09/05 08:36:40;;;;;;;6.25;5.65;;;;;;;26.65;40.84;102086.00;5065096;28;20396;-57
2022/09/05 08:39:09;;;;;;;7.93;5.25;;;;;;;26.62;40.19;102084.59;5064346;28;20423;-57
2022/09/05 08:41:49;;;;;;;6.25;5.28;;;;;;;26.55;41.01;102083.06;5063969;28;20475;-57
2022/09/05 08:44:30;;;;;;;6.78;5.68;;;;;;;26.57;41.02;102078.22;5058545;28;20393;-58
2022/09/05 08:47:18;;;;;;;6.30;5.40;;;;;;;26.64;40.73;102068.03;5050721;28;20413;-57
2022/09/05 08:49:50;;;;;;;13.02;5.78;;;;;;;26.80;40.82;102072.66;5051270;28;20400;-57
2022/09/05 08:52:41;;;;;;;10.02;5.93;;;;;;;26.85;40.67;102066.50;5051693;28;20580;-58
2022/09/05 08:55:19;;;;;;;6.90;4.70;;;;;;;26.86;40.69;102068.13;5051226;28;20392;-56
2022/09/05 08:57:44;;;;;;;4.90;4.40;;;;;;;26.95;40.15;102058.47;5050739;28;20392;-57
2022/09/05 09:00:14;;;;;;;6.23;4.33;;;;;;;26.94;40.03;102056.00;5051180;28;20392;-57
2022/09/05 09:03:01;;;;;;;4.20;3.80;;;;;;;26.80;40.15;102048.19;5051589;28;20910;-58
2022/09/05 09:05:44;;;;;;;4.40;4.00;;;;;;;26.60;40.21;102051.34;5037593;28;20405;-57
2022/09/05 09:08:24;;;;;;;5.93;4.03;;;;;;;26.32;41.26;102050.28;5050888;28;20396;-57
2022/09/05 09:10:56;;;;;;;6.88;4.63;;;;;;;26.40;40.98;102051.81;5050603;28;20397;-58
2022/09/05 09:13:51;;;;;;;5.25;4.50;;;;;;;26.27;41.27;102043.94;5036688;28;20917;-57
2022/09/05 09:16:29;;;;;;;6.25;4.53;;;;;;;26.35;41.41;102043.56;5050309;28;20495;-58
2022/09/05 09:19:29;;;;;;;7.30;4.82;;;;;;;26.55;41.00;102036.84;5050767;28;20396;-57
2022/09/05 09:22:06;;;;;;;5.05;4.15;;;;;;;26.45;40.54;102046.47;5035286;28;20411;-58
2022/09/05 09:24:45;;;;;;;7.38;4.20;;;;;;;26.25;40.96;102036.06;5050094;28;20400;-57
2022/09/05 09:27:47;;;;;;;8.45;5.32;;;;;;;26.42;40.76;102032.53;5049224;28;20527;-57
2022/09/05 09:30:14;;;;;;;6.05;4.28;;;;;;;26.54;41.42;102035.19;5049876;28;20404;-57
2022/09/05 09:32:45;;;;;;;5.95;3.83;;;;;;;26.58;41.42;102033.63;5050741;28;20512;-57
2022/09/05 09:35:22;;;;;;;8.23;4.20;;;;;;;26.52;40.78;102028.13;5050415;28;20481;-57
2022/09/05 09:38:12;;;;;;;6.30;4.50;;;;;;;26.55;41.22;102026.78;5049409;28;20389;-58
2022/09/05 09:41:02;;;;;;;4.60;3.63;;;;;;;26.30;41.15;102021.72;5050631;28;20399;-57
2022/09/05 09:44:25;;;;;;;7.70;3.72;;;;;;;26.17;41.20;102024.75;5036902;28;20392;-57
2022/09/05 09:46:52;;;;;;;5.95;3.55;;;;;;;26.02;41.10;102019.81;5050335;28;20399;-57
2022/09/05 09:49:29;;;;;;;5.33;3.93;;;;;;;25.93;41.21;102014.78;5049370;28;20401;-57
2022/09/05 09:52:18;;;;;;;4.68;3.60;;;;;;;25.90;41.74;102014.41;5049820;28;20403;-57
2022/09/05 09:55:01;;;;;;;4.70;3.72;;;;;;;25.86;41.41;102005.91;5050824;28;20376;-58
2022/09/05 09:57:35;;;;;;;5.30;3.60;;;;;;;26.07;41.33;102009.06;5049873;28;20932;-58
2022/09/05 10:00:20;;;;;;;4.38;3.45;;;;;;;26.12;41.13;102011.88;5050736;28;20435;-57
2022/09/05 10:02:58;;;;;;;5.45;3.45;;;;;;;25.97;41.21;102006.97;5049588;28;20385;-57
2022/09/05 10:05:39;;;;;;;5.85;3.63;;;;;;;25.90;41.44;102003.53;5049446;28;20385;-56
2022/09/05 10:08:32;;;;;;;4.15;3.40;;;;;;;25.94;41.90;102002.84;5050508;28;20442;-56
2022/09/05 10:11:19;;;;;;;4.80;3.60;;;;;;;25.79;41.63;101998.97;5050262;28;20407;-57
2022/09/05 10:14:33;;;;;;;6.23;3.37;;;;;;;25.70;40.95;102001.25;5050129;28;20413;-58
2022/09/05 10:17:35;;;;;;;4.70;3.67;;;;;;;25.70;40.40;102003.97;5036732;28;20401;-57
2022/09/05 10:20:13;;;;;;;5.65;3.70;;;;;;;25.62;40.20;101997.00;5049900;28;20388;-57
2022/09/05 10:23:09;;;;;;;4.15;3.40;;;;;;;25.52;40.44;101988.66;5050015;28;20801;-56
2022/09/05 10:25:41;;;;;;;3.90;3.50;;;;;;;25.57;40.49;101986.03;5050222;28;20471;-57
2022/09/05 10:28:12;;;;;;;4.13;3.60;;;;;;;25.65;39.93;101982.94;5050223;28;20396;-57
2022/09/05 10:30:44;;;;;;;5.45;3.78;;;;;;;25.69;40.06;101986.81;5046018;28;20423;-57
2022/09/05 10:33:42;;;;;;;5.90;4.00;;;;;;;25.76;40.57;101987.50;5049793;28;20429;-58
2022/09/05 10:36:21;;;;;;;4.38;3.50;;;;;;;25.79;41.25;101988.94;5008124;28;20457;-57
2022/09/05 10:38:58;;;;;;;6.60;3.50;;;;;;;25.79;40.99;101986.22;5037661;28;20390;-57
2022/09/05 10:41:38;;;;;;;7.07;3.75;;;;;;;25.96;41.31;101986.28;5033145;28;20820;-57
2022/09/05 10:44:06;;;;;;;6.45;3.40;;;;;;;25.88;41.25;101984.75;5039208;28;20789;-57
2022/09/05 10:46:50;;;;;;;4.45;3.58;;;;;;;25.70;41.30;101982.22;5041291;28;20901;-57
2022/09/05 10:49:20;;;;;;;3.93;3.47;;;;;;;25.65;41.82;101985.66;5038381;28;20915;-57
2022/09/05 10:52:24;;;;;;;5.60;3.60;;;;;;;25.78;41.32;101979.13;5032012;28;20394;-57
2022/09/05 10:54:52;;;;;;;5.43;3.70;;;;;;;25.88;41.62;101979.31;5043704;28;20456;-57
2022/09/05 10:57:30;;;;;;;8.52;4.60;;;;;;;26.03;41.57;101978.00;5039736;28;20404;-57
2022/09/05 11:00:19;;;;;;;6.63;3.83;;;;;;;26.20;41.00;101980.75;5044961;28;20386;-57
2022/09/05 11:02:45;;;;;;;3.90;3.50;;;;;;;26.17;40.66;101971.19;5041016;28;20381;-57
2022/09/05 11:05:37;;;;;;;4.93;3.65;;;;;;;26.20;40.86;101973.44;5044120;28;20743;-56
2022/09/05 11:08:05;;;;;;;6.07;4.10;;;;;;;26.38;41.05;101974.28;5034869;28;20467;-59
2022/09/05 11:11:13;;;;;;;5.13;3.80;;;;;;;26.32;40.75;101971.47;5048412;28;20380;-60
2022/09/05 11:13:48;;;;;;;5.25;3.70;;;;;;;26.30;40.40;101962.72;5048192;28;20545;-57
2022/09/05 11:16:50;;;;;;;5.13;3.80;;;;;;;26.44;39.96;101963.25;5049256;28;20811;-58
2022/09/05 11:19:32;;;;;;;5.95;4.15;;;;;;;26.52;40.40;101967.44;5049682;28;20388;-57
2022/09/05 11:22:06;;;;;;;4.15;3.70;;;;;;;26.39;39.48;101957.72;5049172;28;20418;-58
2022/09/05 11:24:49;;;;;;;5.47;3.85;;;;;;;26.50;40.00;101964.16;5049073;28;20397;-57
2022/09/05 11:27:38;;;;;;;4.28;3.60;;;;;;;26.50;39.82;101948.66;5049260;28;20372;-57
2022/09/05 11:30:14;;;;;;;4.15;3.70;;;;;;;26.50;39.87;101945.94;5036589;28;20401;-57
2022/09/05 11:33:10;;;;;;;5.90;4.05;;;;;;;26.37;39.58;101942.72;5048933;28;20423;-57
2022/09/05 11:36:02;;;;;;;5.07;3.75;;;;;;;26.27;39.98;101949.66;5049151;28;20435;-57
2022/09/05 11:38:48;;;;;;;4.45;3.95;;;;;;;26.39;40.14;101948.75;5049242;28;20381;-57
2022/09/05 11:41:54;;;;;;;5.00;3.70;;;;;;;26.51;39.49;101941.34;5049169;28;20796;-58
2022/09/05 11:44:27;;;;;;;4.85;3.97;;;;;;;26.59;39.72;101940.09;5048961;28;20801;-57
2022/09/05 11:47:30;;;;;;;4.80;4.10;;;;;;;26.57;38.86;101937.63;5048817;28;20490;-57
2022/09/05 11:50:28;;;;;;;4.10;3.70;;;;;;;26.37;39.01;101938.09;5049345;28;20491;-57
2022/09/05 11:53:09;;;;;;;5.20;3.93;;;;;;;26.22;39.24;101929.72;4994040;28;20447;-57
2022/09/05 11:55:52;;;;;;;4.32;3.90;;;;;;;26.33;39.49;101926.09;5049022;28;20377;-57
2022/09/05 11:58:20;;;;;;;6.88;4.00;;;;;;;26.39;39.33;101924.28;5048637;28;20793;-57
2022/09/05 12:01:10;;;;;;;5.60;4.00;;;;;;;26.41;39.21;101922.94;5048759;28;20471;-57
2022/09/05 12:03:55;;;;;;;4.65;3.90;;;;;;;26.34;38.88;101914.13;5048781;28;20385;-57
2022/09/05 12:07:04;;;;;;;4.82;3.92;;;;;;;26.29;39.27;101917.59;5048637;28;20381;-57
2022/09/05 12:09:51;;;;;;;6.00;4.10;;;;;;;26.17;39.30;101905.97;5048638;28;20408;-57
2022/09/05 12:12:35;;;;;;;4.88;3.90;;;;;;;26.20;39.12;101908.22;5048779;28;20871;-57
2022/09/05 12:15:03;;;;;;;4.38;3.95;;;;;;;26.35;39.21;101913.06;5048425;28;20388;-58
2022/09/05 12:18:07;;;;;;;5.00;3.90;;;;;;;26.37;39.25;101910.09;5048876;28;20373;-57
2022/09/05 12:21:00;;;;;;;4.27;3.87;;;;;;;26.31;39.46;101906.50;5001032;28;20483;-57
2022/09/05 12:23:49;;;;;;;4.30;3.90;;;;;;;26.27;39.09;101905.31;5052886;28;20396;-57
2022/09/05 12:26:25;;;;;;;4.22;3.83;;;;;;;26.19;39.39;101898.41;5052431;28;20412;-58
2022/09/05 12:28:57;;;;;;;5.18;3.78;;;;;;;26.17;39.32;101892.38;5052561;28;20408;-57
2022/09/05 12:31:59;;;;;;;7.75;4.00;;;;;;;26.11;39.00;101894.19;5052168;28;20756;-57
2022/09/05 12:34:50;;;;;;;5.60;4.00;;;;;;;26.05;38.84;101899.78;5047965;28;20427;-57
2022/09/05 12:37:21;;;;;;;5.57;4.10;;;;;;;26.08;38.63;101888.44;5052369;28;20380;-58
2022/09/05 12:40:05;;;;;;;4.30;3.90;;;;;;;26.13;38.65;101885.81;5051965;28;20720;-57
2022/09/05 12:42:49;;;;;;;5.38;3.75;;;;;;;26.22;38.54;101880.78;5052478;28;20381;-56
2022/09/05 12:45:40;;;;;;;5.30;4.05;;;;;;;26.18;37.91;101882.31;5051712;28;20408;-57
2022/09/05 12:48:21;;;;;;;4.53;4.10;;;;;;;26.02;37.87;101875.81;5052051;28;20867;-57
2022/09/05 12:51:08;;;;;;;4.70;4.07;;;;;;;26.03;38.42;101875.56;5052081;28;20385;-57
2022/09/05 12:54:04;;;;;;;6.30;4.40;;;;;;;26.09;39.29;101874.59;5051701;28;20415;-58
2022/09/05 12:57:02;;;;;;;5.10;4.30;;;;;;;26.07;38.77;101878.63;5051553;28;20821;-58